Time;durP1;ratioP1;P1;durP2;ratioP2;P2;SDS_P1;SDS_P2;PMS_P1;PMS_P2;Temp;Humidity;BMP_temperature;BMP_pressure;BME280_temperature;BME280_humidity;BME280_pressure;Samples;Min_cycle;Max_cycle;Signal;HPM_P1;HPM_P2
2023/12/08 00:02:17;;;;;;;20.02;4.70;;;9.00;99.90;;;;;;5065501;28;20045;-63
2023/12/08 00:04:44;;;;;;;14.80;4.43;;;9.00;99.90;;;;;;5064501;28;20048;-64
2023/12/08 00:07:10;;;;;;;16.00;4.45;;;9.00;99.90;;;;;;5069749;28;20487;-63
2023/12/08 00:09:37;;;;;;;18.98;4.72;;;9.00;99.90;;;;;;5069522;28;20067;-63
2023/12/08 00:12:04;;;;;;;18.75;6.40;;;9.00;99.90;;;;;;5069108;28;20044;-63
2023/12/08 00:14:32;;;;;;;15.13;4.60;;;9.00;99.90;;;;;;5051354;28;20042;-63
2023/12/08 00:16:59;;;;;;;22.17;3.90;;;9.00;99.90;;;;;;5068639;28;20054;-63
2023/12/08 00:19:25;;;;;;;16.90;4.22;;;8.90;99.90;;;;;;5069539;28;20052;-64
2023/12/08 00:21:53;;;;;;;15.00;3.45;;;8.90;99.90;;;;;;5068922;28;20048;-63
2023/12/08 00:24:20;;;;;;;17.20;4.32;;;8.90;99.90;;;;;;5069583;28;20040;-63
2023/12/08 00:26:47;;;;;;;15.25;4.00;;;8.90;99.90;;;;;;5068991;28;20106;-64
2023/12/08 00:29:14;;;;;;;12.30;5.00;;;8.80;99.90;;;;;;5069084;28;20049;-64
2023/12/08 00:31:40;;;;;;;15.52;3.63;;;8.80;99.90;;;;;;5071899;28;20036;-64
2023/12/08 00:34:07;;;;;;;12.77;3.47;;;8.80;99.90;;;;;;5071352;28;20094;-63
2023/12/08 00:36:34;;;;;;;19.10;4.13;;;8.80;99.90;;;;;;5070703;28;20415;-63
2023/12/08 00:39:01;;;;;;;20.10;5.05;;;8.80;99.90;;;;;;5072158;28;20071;-63
2023/12/08 00:41:28;;;;;;;14.45;4.25;;;8.70;99.90;;;;;;5071122;28;20127;-64
2023/12/08 00:43:55;;;;;;;16.25;3.20;;;8.70;99.90;;;;;;5071847;28;20055;-63
2023/12/08 00:46:22;;;;;;;23.52;6.60;;;8.70;99.90;;;;;;5075147;28;20048;-64
2023/12/08 00:48:48;;;;;;;9.27;3.45;;;8.60;99.90;;;;;;5073178;28;20052;-64
2023/12/08 00:51:16;;;;;;;22.95;4.43;;;8.60;99.90;;;;;;5071681;28;20048;-63
2023/12/08 00:53:42;;;;;;;16.40;3.13;;;8.60;99.90;;;;;;5071150;28;20110;-64
2023/12/08 00:56:10;;;;;;;19.17;3.95;;;8.60;99.90;;;;;;5086234;28;20114;-63
2023/12/08 00:58:37;;;;;;;15.63;4.35;;;8.50;99.90;;;;;;5070705;28;20041;-63
2023/12/08 01:01:04;;;;;;;18.63;3.40;;;8.50;99.90;;;;;;5071694;28;20048;-65
2023/12/08 01:03:31;;;;;;;13.82;3.42;;;8.40;99.90;;;;;;5067992;28;20471;-63
2023/12/08 01:05:58;;;;;;;16.58;3.78;;;8.40;99.90;;;;;;5071335;28;20051;-62
2023/12/08 01:08:25;;;;;;;12.23;4.50;;;8.40;99.90;;;;;;4716747;28;10000244;-63
2023/12/08 01:10:52;;;;;;;14.85;3.80;;;8.40;99.90;;;;;;5070324;28;20048;-63
2023/12/08 01:13:19;;;;;;;18.10;3.72;;;8.40;99.90;;;;;;5071132;28;20056;-63
2023/12/08 01:15:46;;;;;;;17.80;3.55;;;8.30;99.90;;;;;;5070430;28;20051;-63
2023/12/08 01:18:13;;;;;;;18.48;4.07;;;8.30;99.90;;;;;;5053269;28;20153;-63
2023/12/08 01:20:40;;;;;;;18.15;4.25;;;8.30;99.90;;;;;;5069836;28;20423;-62
2023/12/08 01:23:07;;;;;;;19.70;3.42;;;8.30;99.90;;;;;;5070557;28;20036;-63
2023/12/08 01:25:34;;;;;;;22.95;6.68;;;8.30;99.90;;;;;;5070098;28;20055;-63
2023/12/08 01:28:01;;;;;;;24.27;3.85;;;8.30;99.90;;;;;;5052124;28;20040;-62
2023/12/08 01:30:28;;;;;;;21.42;4.72;;;8.40;99.90;;;;;;5068476;28;20072;-63
2023/12/08 01:32:55;;;;;;;31.25;6.20;;;8.50;99.90;;;;;;5070146;28;20071;-62
2023/12/08 01:35:22;;;;;;;22.67;3.75;;;8.50;99.90;;;;;;5069976;28;20060;-63
2023/12/08 01:37:49;;;;;;;21.88;5.40;;;8.50;99.90;;;;;;5070321;28;20132;-62
2023/12/08 01:40:15;;;;;;;24.63;5.20;;;8.50;99.90;;;;;;5067098;28;20051;-62
2023/12/08 01:42:44;;;;;;;32.45;4.93;;;8.50;99.90;;;;;;5068125;28;20101;-64
2023/12/08 01:45:11;;;;;;;20.40;3.55;;;8.60;99.90;;;;;;5068573;28;20060;-62
2023/12/08 01:47:38;;;;;;;23.08;4.65;;;8.50;99.90;;;;;;5070033;28;20040;-62
2023/12/08 01:50:06;;;;;;;26.65;4.78;;;8.60;99.90;;;;;;5067929;28;20056;-62
2023/12/08 01:52:32;;;;;;;35.22;5.47;;;8.50;99.90;;;;;;5083811;28;20094;-62
2023/12/08 01:54:59;;;;;;;22.85;4.57;;;8.50;99.90;;;;;;5083534;28;20098;-63
2023/12/08 01:57:26;;;;;;;32.65;4.40;;;8.50;99.90;;;;;;5051755;28;20045;-62
2023/12/08 01:59:53;;;;;;;27.08;4.13;;;8.50;99.90;;;;;;5084543;28;20343;-63
2023/12/08 02:02:23;;;;;;;18.13;3.72;;;8.50;99.90;;;;;;5082894;28;20040;-62
2023/12/08 02:04:49;;;;;;;22.23;4.20;;;8.50;99.90;;;;;;5067677;28;20059;-62
2023/12/08 02:07:16;;;;;;;23.38;4.07;;;8.50;99.90;;;;;;5051210;28;20076;-62
2023/12/08 02:09:43;;;;;;;18.60;3.58;;;8.50;99.90;;;;;;5069838;28;20052;-62
2023/12/08 02:12:10;;;;;;;23.90;3.75;;;8.50;99.90;;;;;;5068143;28;20091;-62
2023/12/08 02:14:37;;;;;;;24.65;4.18;;;8.50;99.90;;;;;;5049968;28;20044;-62
2023/12/08 02:17:11;;;;;;;31.27;4.78;;;8.50;99.90;;;;;;5067971;28;20048;-62
2023/12/08 02:19:38;;;;;;;27.27;4.15;;;8.50;99.90;;;;;;5064242;28;20559;-62
2023/12/08 02:22:05;;;;;;;25.63;4.45;;;8.40;99.90;;;;;;5067708;28;20049;-62
2023/12/08 02:24:32;;;;;;;29.45;3.70;;;8.50;99.90;;;;;;5063541;28;20040;-62
2023/12/08 02:26:59;;;;;;;24.27;4.72;;;8.40;99.90;;;;;;5067590;28;20557;-62
2023/12/08 02:29:26;;;;;;;20.50;3.38;;;8.40;99.90;;;;;;5053474;28;20060;-62
2023/12/08 02:32:01;;;;;;;25.70;3.83;;;8.40;99.90;;;;;;5067561;28;20041;-62
2023/12/08 02:34:28;;;;;;;17.13;3.97;;;8.40;99.90;;;;;;5054334;28;20406;-62
2023/12/08 02:36:55;;;;;;;31.05;6.20;;;8.40;99.90;;;;;;5037008;28;20055;-62
2023/12/08 02:39:22;;;;;;;27.05;4.63;;;8.40;99.90;;;;;;5070355;28;20048;-62
2023/12/08 02:41:49;;;;;;;28.80;5.28;;;8.40;99.90;;;;;;5053511;28;20071;-63
2023/12/08 02:44:16;;;;;;;28.17;4.65;;;8.40;99.90;;;;;;5053961;28;20055;-63
2023/12/08 02:46:42;;;;;;;21.27;3.83;;;8.40;99.90;;;;;;5070218;28;20044;-63
2023/12/08 02:49:09;;;;;;;34.53;4.82;;;8.40;99.90;;;;;;5087167;28;20041;-61
2023/12/08 02:51:36;;;;;;;22.83;4.82;;;8.40;99.90;;;;;;5067966;28;20048;-63
2023/12/08 02:54:03;;;;;;;22.48;4.75;;;8.40;99.90;;;;;;5070274;28;20049;-62
2023/12/08 02:56:30;;;;;;;34.88;5.75;;;8.40;99.90;;;;;;5070337;28;20888;-62
2023/12/08 02:58:57;;;;;;;25.40;4.72;;;8.40;99.90;;;;;;5070414;28;20129;-62
2023/12/08 03:01:24;;;;;;;26.58;4.45;;;8.40;99.90;;;;;;5070254;28;20056;-62
2023/12/08 03:03:51;;;;;;;31.15;6.80;;;8.40;99.90;;;;;;5070402;28;20052;-62
2023/12/08 03:06:18;;;;;;;36.50;5.53;;;8.40;99.90;;;;;;5070605;28;20056;-62
2023/12/08 03:08:44;;;;;;;30.13;4.70;;;8.40;99.90;;;;;;5070233;28;20094;-62
2023/12/08 03:11:11;;;;;;;25.42;4.90;;;8.40;99.90;;;;;;5070388;28;20053;-62
2023/12/08 03:13:38;;;;;;;26.63;4.68;;;8.40;99.90;;;;;;5070298;28;20412;-62
2023/12/08 03:16:06;;;;;;;21.83;4.78;;;8.30;99.90;;;;;;5085015;28;20053;-62
2023/12/08 03:18:32;;;;;;;21.38;4.90;;;8.30;99.90;;;;;;5069304;28;20033;-62
2023/12/08 03:20:59;;;;;;;26.10;4.85;;;8.30;99.90;;;;;;5066982;28;20049;-62
2023/12/08 03:23:26;;;;;;;18.23;4.07;;;8.30;99.90;;;;;;5072051;28;20041;-62
2023/12/08 03:25:53;;;;;;;27.08;4.88;;;8.30;99.90;;;;;;5070888;28;20059;-63
2023/12/08 03:28:20;;;;;;;45.95;5.60;;;8.20;99.90;;;;;;5069929;28;20051;-62
2023/12/08 03:30:47;;;;;;;40.40;6.05;;;8.20;99.90;;;;;;5070222;28;20063;-62
2023/12/08 03:33:14;;;;;;;23.88;4.07;;;8.20;99.90;;;;;;5069693;28;20098;-62
2023/12/08 03:35:41;;;;;;;40.35;6.22;;;8.10;99.90;;;;;;5069956;28;20051;-62
2023/12/08 03:38:08;;;;;;;26.63;4.78;;;8.10;99.90;;;;;;5070152;28;20040;-62
2023/12/08 03:40:34;;;;;;;25.60;5.15;;;8.10;99.90;;;;;;5069490;28;20105;-62
2023/12/08 03:43:01;;;;;;;30.40;5.18;;;8.10;99.90;;;;;;5068940;28;20033;-62
2023/12/08 03:45:28;;;;;;;33.88;4.40;;;8.10;99.90;;;;;;5084191;28;20182;-62
2023/12/08 03:47:55;;;;;;;28.65;5.25;;;8.10;99.90;;;;;;5069653;28;20303;-62
2023/12/08 03:50:22;;;;;;;38.47;5.97;;;8.00;99.90;;;;;;5067506;28;20079;-62
2023/12/08 03:52:53;;;;;;;14.70;3.65;;;8.00;99.90;;;;;;5069406;28;20036;-62
2023/12/08 03:55:19;;;;;;;19.20;4.93;;;8.00;99.90;;;;;;5068562;28;20101;-62
2023/12/08 03:57:47;;;;;;;29.00;4.80;;;8.00;99.90;;;;;;5069264;28;20044;-62
2023/12/08 04:00:14;;;;;;;34.53;4.43;;;8.00;99.90;;;;;;5069388;28;20059;-63
2023/12/08 04:02:41;;;;;;;20.50;4.35;;;7.90;99.90;;;;;;5058520;28;20112;-62
2023/12/08 04:05:08;;;;;;;29.48;4.82;;;7.90;99.90;;;;;;5065082;28;20098;-61
2023/12/08 04:07:34;;;;;;;26.92;4.55;;;7.90;99.90;;;;;;5062371;28;20076;-64
2023/12/08 04:10:01;;;;;;;23.90;3.67;;;7.90;99.90;;;;;;5068734;28;20106;-63
2023/12/08 04:12:28;;;;;;;30.33;4.25;;;7.80;99.90;;;;;;5058699;28;20060;-63
2023/12/08 04:14:55;;;;;;;25.55;5.30;;;7.80;99.90;;;;;;5065612;28;20494;-63
2023/12/08 04:17:22;;;;;;;20.55;4.00;;;7.80;99.90;;;;;;5069158;28;20072;-63
2023/12/08 04:19:49;;;;;;;27.65;6.35;;;7.80;99.90;;;;;;5068875;28;20149;-63
2023/12/08 04:22:15;;;;;;;28.75;5.50;;;7.70;99.90;;;;;;5034978;28;20041;-63
2023/12/08 04:24:42;;;;;;;24.58;4.38;;;7.70;99.90;;;;;;5068309;28;20052;-63
2023/12/08 04:27:09;;;;;;;26.02;4.53;;;7.70;99.90;;;;;;5068819;28;20048;-63
2023/12/08 04:29:36;;;;;;;22.88;3.53;;;7.50;99.90;;;;;;5069191;28;20044;-63
2023/12/08 04:32:03;;;;;;;34.63;4.43;;;7.60;99.90;;;;;;5084272;28;20044;-63
2023/12/08 04:34:30;;;;;;;25.00;4.22;;;7.50;99.90;;;;;;5068594;28;20056;-63
2023/12/08 04:36:57;;;;;;;24.23;3.67;;;7.50;99.90;;;;;;5068757;28;20074;-63
2023/12/08 04:39:24;;;;;;;26.48;4.68;;;7.50;99.90;;;;;;5069061;28;20594;-63
2023/12/08 04:41:51;;;;;;;27.42;4.60;;;7.50;99.90;;;;;;5046644;28;20101;-63
2023/12/08 04:44:18;;;;;;;23.38;4.38;;;7.50;99.90;;;;;;5068656;28;20079;-63
2023/12/08 04:46:45;;;;;;;24.15;4.82;;;7.50;99.90;;;;;;5068261;28;20048;-63
2023/12/08 04:49:11;;;;;;;27.48;4.45;;;7.50;99.90;;;;;;5067215;28;20049;-63
2023/12/08 04:51:42;;;;;;;22.30;3.72;;;7.50;99.90;;;;;;5068192;28;20048;-63
2023/12/08 04:54:09;;;;;;;38.50;5.63;;;7.50;99.90;;;;;;5069402;28;20060;-63
2023/12/08 04:56:35;;;;;;;29.02;5.47;;;7.50;99.90;;;;;;5068451;28;20063;-63
2023/12/08 04:59:02;;;;;;;32.25;5.15;;;7.50;99.90;;;;;;5067993;28;20059;-63
2023/12/08 05:01:30;;;;;;;23.35;5.47;;;7.50;99.90;;;;;;5068013;28;20041;-63
2023/12/08 05:03:57;;;;;;;20.13;5.05;;;7.50;99.90;;;;;;5050434;28;20110;-64
2023/12/08 05:06:26;;;;;;;27.23;4.97;;;7.60;99.90;;;;;;5067930;28;20537;-63
2023/12/08 05:08:53;;;;;;;30.15;6.68;;;7.60;99.90;;;;;;5051011;28;20510;-63
2023/12/08 05:11:20;;;;;;;18.20;4.50;;;7.60;99.90;;;;;;5067867;28;20056;-63
2023/12/08 05:13:47;;;;;;;24.73;5.43;;;7.50;99.90;;;;;;5068305;28;20033;-63
2023/12/08 05:16:15;;;;;;;24.90;6.32;;;7.50;99.90;;;;;;5067825;28;20569;-63
2023/12/08 05:18:42;;;;;;;21.20;4.38;;;7.50;99.90;;;;;;5067984;28;20534;-63
2023/12/08 05:21:09;;;;;;;29.77;4.82;;;7.50;99.90;;;;;;5068048;28;20123;-62
2023/12/08 05:23:36;;;;;;;42.10;7.63;;;7.50;99.90;;;;;;5068175;28;20053;-63
2023/12/08 05:26:03;;;;;;;28.02;5.05;;;7.50;99.90;;;;;;5067528;28;20045;-63
2023/12/08 05:28:30;;;;;;;27.92;5.22;;;7.50;99.90;;;;;;5068030;28;20044;-63
2023/12/08 05:30:57;;;;;;;29.60;5.53;;;7.50;99.90;;;;;;5067446;28;20048;-63
2023/12/08 05:33:24;;;;;;;30.23;5.47;;;7.50;99.90;;;;;;5067588;28;20128;-64
2023/12/08 05:35:51;;;;;;;24.02;4.47;;;7.50;99.90;;;;;;5067879;28;20052;-63
2023/12/08 05:38:18;;;;;;;42.20;4.65;;;7.40;99.90;;;;;;5064170;28;20048;-62
2023/12/08 05:40:44;;;;;;;27.63;5.45;;;7.30;99.90;;;;;;5068201;28;20052;-63
2023/12/08 05:43:11;;;;;;;31.35;5.40;;;7.20;99.90;;;;;;5067521;28;20040;-63
2023/12/08 05:45:38;;;;;;;18.92;3.60;;;7.30;99.90;;;;;;5058743;28;20044;-63
2023/12/08 05:48:05;;;;;;;33.95;6.35;;;7.20;99.90;;;;;;5067174;28;20134;-63
2023/12/08 05:50:32;;;;;;;27.05;4.18;;;7.10;99.90;;;;;;5050700;28;20098;-63
2023/12/08 05:52:59;;;;;;;20.77;3.63;;;7.10;99.90;;;;;;5069140;28;20044;-64
2023/12/08 05:55:27;;;;;;;31.42;7.10;;;7.00;99.90;;;;;;5072010;28;20044;-63
2023/12/08 05:57:53;;;;;;;17.48;3.60;;;7.00;99.90;;;;;;5068390;28;20114;-63
2023/12/08 06:00:20;;;;;;;14.00;3.30;;;6.90;99.90;;;;;;5068032;28;20040;-63
2023/12/08 06:02:48;;;;;;;22.13;4.20;;;6.90;99.90;;;;;;5067694;28;20044;-62
2023/12/08 06:05:15;;;;;;;21.88;5.32;;;6.80;99.90;;;;;;5066967;28;20487;-63
2023/12/08 06:07:42;;;;;;;19.48;3.38;;;6.70;99.90;;;;;;5066992;28;20473;-63
2023/12/08 06:10:09;;;;;;;25.88;3.58;;;6.70;99.90;;;;;;5067234;28;20053;-63
2023/12/08 06:12:36;;;;;;;24.92;5.88;;;6.70;99.90;;;;;;5067286;28;20037;-63
2023/12/08 06:15:04;;;;;;;23.88;4.30;;;6.70;99.90;;;;;;5066780;28;20059;-62
2023/12/08 06:17:31;;;;;;;20.95;3.65;;;6.80;99.90;;;;;;5066981;28;20495;-63
2023/12/08 06:19:58;;;;;;;38.70;5.85;;;6.70;99.90;;;;;;5066607;28;20059;-63
2023/12/08 06:22:25;;;;;;;23.70;6.05;;;6.70;99.90;;;;;;5058703;28;20135;-63
2023/12/08 06:24:52;;;;;;;26.88;5.07;;;6.70;99.90;;;;;;5057784;28;20469;-62
2023/12/08 06:27:18;;;;;;;29.40;4.60;;;6.70;99.90;;;;;;5060037;28;20044;-63
2023/12/08 06:29:45;;;;;;;14.20;3.97;;;6.70;99.90;;;;;;5065319;28;20052;-63
2023/12/08 06:32:12;;;;;;;27.05;4.00;;;6.70;99.90;;;;;;5066580;28;20132;-63
2023/12/08 06:34:39;;;;;;;24.13;4.15;;;6.70;99.90;;;;;;5065123;28;20048;-63
2023/12/08 06:37:06;;;;;;;24.38;4.10;;;6.70;99.90;;;;;;5048821;28;20569;-63
2023/12/08 06:39:33;;;;;;;15.05;3.65;;;6.60;99.90;;;;;;5062122;28;20052;-63
2023/12/08 06:42:00;;;;;;;27.80;5.03;;;6.60;99.90;;;;;;5064825;28;20680;-63
2023/12/08 06:44:29;;;;;;;20.08;4.68;;;6.60;99.90;;;;;;5066375;28;20392;-63
2023/12/08 06:46:55;;;;;;;22.73;5.75;;;6.70;99.90;;;;;;5063681;28;20457;-63
2023/12/08 06:49:22;;;;;;;25.02;5.32;;;6.80;99.90;;;;;;5058364;28;20471;-63
2023/12/08 06:51:49;;;;;;;19.08;4.22;;;6.90;99.90;;;;;;5049067;28;20201;-63
2023/12/08 06:54:16;;;;;;;34.80;5.38;;;7.00;99.90;;;;;;5063323;28;20097;-63
2023/12/08 06:56:43;;;;;;;35.97;7.55;;;7.00;99.90;;;;;;5064755;28;20078;-62
2023/12/08 06:59:10;;;;;;;24.92;3.97;;;7.00;99.90;;;;;;5062383;28;20049;-62
2023/12/08 07:01:37;;;;;;;22.80;4.97;;;7.00;99.90;;;;;;5066274;28;20052;-63
2023/12/08 07:04:04;;;;;;;20.80;5.25;;;7.00;99.90;;;;;;5061768;28;20041;-62
2023/12/08 07:06:31;;;;;;;22.83;4.40;;;7.00;99.90;;;;;;5064516;28;20102;-63
2023/12/08 07:08:57;;;;;;;28.75;5.72;;;7.00;99.90;;;;;;5059132;28;20040;-62
2023/12/08 07:11:24;;;;;;;32.55;6.45;;;7.00;99.90;;;;;;5078305;28;20037;-63
2023/12/08 07:13:51;;;;;;;28.20;4.88;;;7.10;99.90;;;;;;5060203;28;20492;-62
2023/12/08 07:16:18;;;;;;;21.40;4.55;;;7.10;99.90;;;;;;5062988;28;20501;-61
2023/12/08 07:18:45;;;;;;;32.75;4.32;;;7.10;99.90;;;;;;5065795;28;20049;-63
2023/12/08 07:21:12;;;;;;;29.08;5.57;;;7.10;99.90;;;;;;5067343;28;20114;-62
2023/12/08 07:23:40;;;;;;;21.50;4.40;;;7.10;99.90;;;;;;5066098;28;20071;-62
2023/12/08 07:26:07;;;;;;;23.95;4.63;;;7.10;99.90;;;;;;5048414;28;20353;-61
2023/12/08 07:28:33;;;;;;;22.40;4.40;;;7.10;99.90;;;;;;5070093;28;20556;-61
2023/12/08 07:31:00;;;;;;;27.85;4.40;;;7.10;99.90;;;;;;5062634;28;20102;-61
2023/12/08 07:33:27;;;;;;;19.00;4.13;;;7.10;99.90;;;;;;5051345;28;20036;-61
2023/12/08 07:35:54;;;;;;;27.17;6.95;;;7.20;99.90;;;;;;5066778;28;20049;-62
2023/12/08 07:38:21;;;;;;;33.33;3.90;;;7.20;99.90;;;;;;5064104;28;20359;-60
2023/12/08 07:40:48;;;;;;;27.88;4.65;;;7.20;99.90;;;;;;5058366;28;20052;-60
2023/12/08 07:43:15;;;;;;;19.88;3.88;;;7.20;99.90;;;;;;5069779;28;20300;-62
2023/12/08 07:45:42;;;;;;;30.80;6.10;;;7.20;99.90;;;;;;5062684;28;20446;-60
2023/12/08 07:48:08;;;;;;;39.03;4.22;;;7.30;99.90;;;;;;5057563;28;20128;-62
2023/12/08 07:50:36;;;;;;;21.48;3.47;;;7.30;99.90;;;;;;5065864;28;20048;-63
2023/12/08 07:53:02;;;;;;;18.48;4.25;;;7.30;99.90;;;;;;5063904;28;20367;-62
2023/12/08 07:55:30;;;;;;;19.73;4.22;;;7.30;99.90;;;;;;5054775;28;20044;-60
2023/12/08 07:57:57;;;;;;;31.95;6.43;;;7.30;99.90;;;;;;5066217;28;20045;-60
2023/12/08 08:00:24;;;;;;;26.42;7.40;;;7.30;99.90;;;;;;5065373;28;20353;-61
2023/12/08 08:02:50;;;;;;;23.80;5.13;;;7.30;99.90;;;;;;5066279;28;20540;-60
2023/12/08 08:05:17;;;;;;;26.55;4.57;;;7.30;99.90;;;;;;5068285;28;20088;-60
2023/12/08 08:07:44;;;;;;;17.15;3.40;;;7.30;99.90;;;;;;5063170;28;20380;-61
2023/12/08 08:10:11;;;;;;;27.75;5.70;;;7.30;99.90;;;;;;5066024;28;20612;-61
2023/12/08 08:12:38;;;;;;;24.35;3.97;;;7.40;99.90;;;;;;5048608;28;20052;-60
2023/12/08 08:15:05;;;;;;;24.70;5.30;;;7.30;99.90;;;;;;5051650;28;20057;-61
2023/12/08 08:17:34;;;;;;;26.17;3.53;;;7.40;99.90;;;;;;5068111;28;20044;-61
2023/12/08 08:20:01;;;;;;;34.30;4.03;;;7.40;99.90;;;;;;5069215;28;20080;-61
2023/12/08 08:22:27;;;;;;;19.42;3.50;;;7.40;99.90;;;;;;5069301;28;20056;-61
2023/12/08 08:25:02;;;;;;;26.42;5.45;;;7.40;99.90;;;;;;5069257;28;20155;-61
2023/12/08 08:27:29;;;;;;;21.50;3.67;;;7.50;99.90;;;;;;5053301;28;20052;-61
2023/12/08 08:29:56;;;;;;;41.00;5.50;;;7.50;99.90;;;;;;5069385;28;20100;-61
2023/12/08 08:32:23;;;;;;;20.50;4.60;;;7.50;99.90;;;;;;5071917;28;20537;-61
2023/12/08 08:34:52;;;;;;;25.42;6.35;;;7.50;99.90;;;;;;5067826;28;20449;-61
2023/12/08 08:37:23;;;;;;;24.27;4.32;;;7.50;99.90;;;;;;5044904;28;20511;-61
2023/12/08 08:39:50;;;;;;;26.80;4.45;;;7.60;99.90;;;;;;4699938;28;10000096;-61
2023/12/08 08:42:17;;;;;;;21.10;4.50;;;7.60;99.90;;;;;;5065326;28;20518;-62
2023/12/08 08:44:44;;;;;;;20.85;3.35;;;7.60;99.90;;;;;;5064801;28;20579;-61
2023/12/08 08:47:12;;;;;;;19.63;4.07;;;7.60;99.90;;;;;;5055283;28;20059;-60
2023/12/08 08:49:39;;;;;;;26.67;4.07;;;7.70;99.90;;;;;;5063144;28;20054;-61
2023/12/08 08:52:06;;;;;;;24.05;3.67;;;7.70;99.90;;;;;;5065862;28;20063;-61
2023/12/08 08:54:33;;;;;;;25.95;5.00;;;7.70;99.90;;;;;;5064774;28;20336;-61
2023/12/08 08:57:00;;;;;;;30.75;4.90;;;7.70;99.90;;;;;;5065870;28;20078;-61
2023/12/08 08:59:27;;;;;;;21.15;3.90;;;7.70;99.90;;;;;;5063037;28;20080;-61
2023/12/08 09:01:54;;;;;;;21.85;5.50;;;7.70;99.90;;;;;;5060004;28;20052;-61
2023/12/08 09:04:20;;;;;;;24.95;3.72;;;7.70;99.90;;;;;;5046996;28;20044;-65
2023/12/08 09:06:48;;;;;;;24.23;2.75;;;7.80;99.90;;;;;;5056269;28;20114;-61
2023/12/08 09:09:15;;;;;;;24.55;3.72;;;7.70;99.90;;;;;;5061424;28;20040;-61
2023/12/08 09:11:43;;;;;;;28.88;4.40;;;7.80;99.90;;;;;;5054595;28;20423;-61
2023/12/08 09:14:10;;;;;;;26.88;4.80;;;7.80;99.90;;;;;;5059278;28;20052;-61
2023/12/08 09:16:37;;;;;;;23.35;4.32;;;7.80;99.90;;;;;;5063195;28;20487;-61
2023/12/08 09:19:05;;;;;;;35.55;4.93;;;7.80;99.90;;;;;;5060536;28;21062;-61
2023/12/08 09:21:32;;;;;;;27.10;5.72;;;7.80;99.90;;;;;;5063809;28;20445;-61
2023/12/08 09:24:08;;;;;;;32.65;4.68;;;7.90;99.90;;;;;;5063938;28;20044;-61
2023/12/08 09:26:36;;;;;;;25.25;5.25;;;7.90;99.90;;;;;;5060148;28;20118;-61
2023/12/08 09:29:03;;;;;;;24.05;4.22;;;8.00;99.90;;;;;;5061535;28;20436;-61
2023/12/08 09:31:29;;;;;;;30.38;5.25;;;8.00;99.90;;;;;;5062647;28;20048;-62
2023/12/08 09:33:58;;;;;;;37.90;6.30;;;8.10;99.90;;;;;;5046446;28;20051;-61
2023/12/08 09:36:26;;;;;;;24.20;4.13;;;8.20;99.90;;;;;;5064124;28;20080;-62
2023/12/08 09:38:53;;;;;;;37.05;4.95;;;8.20;99.90;;;;;;5051722;28;20067;-61
2023/12/08 09:41:20;;;;;;;28.85;5.90;;;8.30;99.90;;;;;;5062128;28;20619;-62
2023/12/08 09:43:54;;;;;;;28.63;5.28;;;8.30;99.90;;;;;;5044071;28;20049;-61
2023/12/08 09:46:21;;;;;;;41.47;5.43;;;8.40;99.90;;;;;;5045661;28;20079;-61
2023/12/08 09:48:48;;;;;;;26.30;4.70;;;8.50;99.90;;;;;;5037229;28;20095;-62
2023/12/08 09:51:15;;;;;;;19.77;4.40;;;8.50;99.90;;;;;;5042391;28;20044;-61
2023/12/08 09:53:42;;;;;;;29.42;5.45;;;8.60;99.90;;;;;;5055803;28;20080;-62
2023/12/08 09:56:09;;;;;;;41.00;4.90;;;8.60;99.90;;;;;;5042792;28;20059;-61
2023/12/08 09:58:36;;;;;;;30.25;5.32;;;8.70;99.90;;;;;;5060722;28;20102;-61
2023/12/08 10:01:05;;;;;;;27.08;4.75;;;8.80;99.90;;;;;;5056262;28;20731;-62
2023/12/08 10:03:32;;;;;;;24.08;5.20;;;8.80;99.90;;;;;;5079249;28;20048;-62
2023/12/08 10:05:59;;;;;;;30.80;5.85;;;8.90;99.90;;;;;;5064219;28;20084;-61
2023/12/08 10:08:25;;;;;;;26.13;4.57;;;9.00;99.90;;;;;;5063329;28;20083;-62
2023/12/08 10:10:52;;;;;;;34.50;5.80;;;9.10;99.90;;;;;;5062562;28;20048;-62
2023/12/08 10:13:19;;;;;;;27.05;4.55;;;9.10;99.90;;;;;;5057225;28;20101;-62
2023/12/08 10:15:46;;;;;;;32.25;5.18;;;9.20;99.90;;;;;;5061564;28;20062;-62
2023/12/08 10:18:23;;;;;;;33.67;5.90;;;9.20;99.90;;;;;;5062126;28;20056;-62
2023/12/08 10:20:51;;;;;;;37.63;7.30;;;9.30;99.90;;;;;;5063537;28;20056;-62
2023/12/08 10:23:22;;;;;;;44.70;5.82;;;9.40;99.90;;;;;;5062064;28;20052;-61
2023/12/08 10:25:49;;;;;;;28.10;5.57;;;9.40;99.90;;;;;;5064046;28;20076;-62
2023/12/08 10:28:17;;;;;;;29.13;5.15;;;9.50;99.90;;;;;;5039950;28;20049;-63
2023/12/08 10:30:50;;;;;;;40.83;6.55;;;9.50;99.90;;;;;;5041504;28;20059;-62
2023/12/08 10:33:20;;;;;;;34.57;5.23;;;9.60;99.90;;;;;;5038144;28;20454;-61
2023/12/08 10:35:48;;;;;;;39.65;6.10;;;9.70;99.90;;;;;;5056687;28;20144;-62
2023/12/08 10:38:15;;;;;;;28.85;5.57;;;9.70;99.90;;;;;;5059188;28;20068;-61
2023/12/08 10:40:49;;;;;;;30.80;5.28;;;9.70;99.90;;;;;;5077922;28;20052;-62
2023/12/08 10:43:23;;;;;;;24.30;4.47;;;9.80;99.90;;;;;;5077516;28;20051;-61
2023/12/08 10:45:50;;;;;;;27.20;4.90;;;9.90;99.90;;;;;;5050093;28;20053;-63
2023/12/08 10:48:19;;;;;;;19.27;4.35;;;9.90;99.90;;;;;;5058428;28;20052;-61
2023/12/08 10:50:50;;;;;;;31.40;5.20;;;9.90;99.90;;;;;;5069122;28;20527;-61
2023/12/08 10:53:18;;;;;;;24.55;4.38;;;9.90;99.90;;;;;;5059177;28;20048;-62
2023/12/08 10:56:05;;;;;;;33.47;5.28;;;10.00;99.90;;;;;;5055771;28;20055;-65
2023/12/08 10:58:35;;;;;;;32.30;5.75;;;9.90;99.90;;;;;;5061151;28;20253;-60
2023/12/08 11:01:06;;;;;;;21.75;4.82;;;10.00;99.90;;;;;;5055232;28;20256;-61
2023/12/08 11:03:33;;;;;;;34.25;5.55;;;10.00;99.90;;;;;;5052582;28;20162;-60
2023/12/08 11:06:21;;;;;;;28.10;4.35;;;10.00;99.90;;;;;;5047348;28;20083;-62
2023/12/08 11:08:48;;;;;;;31.23;4.47;;;10.10;99.90;;;;;;5049227;28;20044;-63
2023/12/08 11:11:15;;;;;;;36.17;5.25;;;10.00;99.90;;;;;;5046532;28;20115;-63
2023/12/08 11:13:46;;;;;;;27.75;4.50;;;10.00;99.90;;;;;;5058799;28;20048;-63
2023/12/08 11:16:28;;;;;;;36.20;6.20;;;10.00;99.90;;;;;;5049398;28;20149;-63
2023/12/08 11:18:56;;;;;;;31.98;5.45;;;10.10;99.90;;;;;;5066327;28;20518;-61
2023/12/08 11:21:23;;;;;;;27.33;4.07;;;10.10;99.90;;;;;;5049242;28;20048;-62
2023/12/08 11:23:51;;;;;;;26.77;4.68;;;10.10;99.90;;;;;;5066710;28;20098;-61
2023/12/08 11:26:49;;;;;;;32.63;5.78;;;10.10;99.90;;;;;;5048766;28;20470;-62
2023/12/08 11:29:34;;;;;;;30.35;4.93;;;10.20;99.90;;;;;;5063778;28;20315;-61
2023/12/08 11:32:23;;;;;;;39.92;5.50;;;10.20;99.90;;;;;;5063261;28;20056;-61
2023/12/08 11:34:55;;;;;;;31.52;6.03;;;10.20;99.90;;;;;;5042331;28;20568;-61
2023/12/08 11:37:22;;;;;;;34.00;5.70;;;10.20;99.90;;;;;;5057105;28;20526;-62
2023/12/08 11:39:49;;;;;;;30.25;4.63;;;10.20;99.90;;;;;;5049046;28;20111;-62
2023/12/08 11:42:20;;;;;;;29.33;7.75;;;10.20;99.90;;;;;;5060009;28;20036;-61
2023/12/08 11:44:47;;;;;;;36.53;5.30;;;10.20;99.90;;;;;;5062846;28;20048;-62
2023/12/08 11:47:16;;;;;;;36.00;5.95;;;10.20;99.90;;;;;;5047783;28;20048;-61
2023/12/08 11:49:44;;;;;;;47.15;6.07;;;10.20;99.90;;;;;;5065824;28;20052;-61
2023/12/08 11:52:15;;;;;;;35.38;5.28;;;10.30;99.90;;;;;;5064783;28;20047;-62
2023/12/08 11:55:12;;;;;;;22.25;4.68;;;10.30;99.90;;;;;;5065162;28;20060;-62
2023/12/08 11:57:59;;;;;;;35.00;5.97;;;10.40;99.90;;;;;;5065790;28;20499;-62
2023/12/08 12:00:27;;;;;;;29.13;5.93;;;10.30;99.90;;;;;;5066060;28;20052;-62
2023/12/08 12:02:55;;;;;;;29.05;5.80;;;10.40;99.90;;;;;;5044826;28;20140;-62
2023/12/08 12:05:22;;;;;;;31.13;5.22;;;10.40;99.90;;;;;;5047160;28;20073;-61
2023/12/08 12:07:50;;;;;;;35.13;4.88;;;10.50;99.90;;;;;;5067082;28;20052;-63
2023/12/08 12:10:19;;;;;;;28.83;5.43;;;10.50;99.90;;;;;;5066383;28;20048;-61
2023/12/08 12:12:53;;;;;;;27.10;3.95;;;10.50;99.90;;;;;;5046738;28;20110;-61
2023/12/08 12:15:19;;;;;;;;;;;10.60;99.90;;;;;;5065855;28;20537;-63
2023/12/08 12:17:48;;;;;;;27.23;5.55;;;10.60;99.90;;;;;;5065831;28;19924;-63
2023/12/08 12:20:15;;;;;;;15.80;3.85;;;10.60;99.90;;;;;;5054973;28;20044;-63
2023/12/08 12:22:42;;;;;;;31.98;5.40;;;10.60;99.90;;;;;;5065511;28;20054;-63
2023/12/08 12:25:10;;;;;;;27.92;5.20;;;10.70;99.90;;;;;;5083812;28;20044;-63
2023/12/08 12:27:44;;;;;;;34.13;4.72;;;10.70;99.90;;;;;;5061361;28;20048;-63
2023/12/08 12:30:12;;;;;;;22.55;6.82;;;10.80;99.90;;;;;;5060788;28;20126;-63
2023/12/08 12:32:40;;;;;;;23.30;5.05;;;10.70;99.90;;;;;;5048695;28;20048;-62
2023/12/08 12:35:07;;;;;;;26.33;4.80;;;10.80;99.90;;;;;;5065572;28;20131;-63
2023/12/08 12:37:34;;;;;;;23.30;5.82;;;10.80;99.90;;;;;;5062477;28;20052;-63
2023/12/08 12:40:01;;;;;;;23.17;4.13;;;10.90;99.90;;;;;;5043489;28;20048;-63
2023/12/08 12:42:28;;;;;;;25.92;4.88;;;10.90;99.90;;;;;;5063489;28;20052;-62
2023/12/08 12:44:55;;;;;;;27.05;5.10;;;10.90;99.90;;;;;;5064660;28;20110;-61
2023/12/08 12:47:24;;;;;;;23.10;4.57;;;10.90;99.90;;;;;;5065294;28;20049;-63
2023/12/08 12:50:07;;;;;;;34.17;4.95;;;10.90;99.90;;;;;;5065468;28;20118;-62